sensor_id;sensor_type;location;lat;lon;timestamp;temperature;humidity
19359;DHT22;9815;52.334;20.890;2024-02-16T00:00:18;8.10;99.90
19359;DHT22;9815;52.334;20.890;2024-02-16T00:02:48;8.20;99.90
19359;DHT22;9815;52.334;20.890;2024-02-16T00:05:17;8.20;99.90
19359;DHT22;9815;52.334;20.890;2024-02-16T00:07:44;8.20;99.90
19359;DHT22;9815;52.334;20.890;2024-02-16T00:10:14;8.20;99.90
19359;DHT22;9815;52.334;20.890;2024-02-16T00:12:45;8.20;99.90
19359;DHT22;9815;52.334;20.890;2024-02-16T00:15:13;8.20;99.90
19359;DHT22;9815;52.334;20.890;2024-02-16T00:17:42;8.20;99.90
19359;DHT22;9815;52.334;20.890;2024-02-16T00:20:12;8.20;99.90
19359;DHT22;9815;52.334;20.890;2024-02-16T00:22:40;8.20;99.90
19359;DHT22;9815;52.334;20.890;2024-02-16T00:25:09;8.10;99.90
19359;DHT22;9815;52.334;20.890;2024-02-16T00:27:38;8.10;99.90
19359;DHT22;9815;52.334;20.890;2024-02-16T00:30:08;8.10;99.90
19359;DHT22;9815;52.334;20.890;2024-02-16T00:32:38;8.00;99.90
19359;DHT22;9815;52.334;20.890;2024-02-16T00:35:07;8.00;99.90
19359;DHT22;9815;52.334;20.890;2024-02-16T00:37:37;8.00;99.90
19359;DHT22;9815;52.334;20.890;2024-02-16T00:40:07;8.00;99.90
19359;DHT22;9815;52.334;20.890;2024-02-16T00:42:36;8.00;99.90
19359;DHT22;9815;52.334;20.890;2024-02-16T00:45:05;8.00;99.90
19359;DHT22;9815;52.334;20.890;2024-02-16T00:47:34;7.90;99.90
19359;DHT22;9815;52.334;20.890;2024-02-16T00:50:03;7.90;99.90
19359;DHT22;9815;52.334;20.890;2024-02-16T00:52:37;7.90;99.90
19359;DHT22;9815;52.334;20.890;2024-02-16T00:55:08;7.80;99.90
19359;DHT22;9815;52.334;20.890;2024-02-16T00:57:37;7.70;99.90
19359;DHT22;9815;52.334;20.890;2024-02-16T01:00:07;7.70;99.90
19359;DHT22;9815;52.334;20.890;2024-02-16T01:02:37;7.70;99.90
19359;DHT22;9815;52.334;20.890;2024-02-16T01:05:06;7.70;99.90
19359;DHT22;9815;52.334;20.890;2024-02-16T01:07:39;7.70;99.90
19359;DHT22;9815;52.334;20.890;2024-02-16T01:10:10;7.60;99.90
19359;DHT22;9815;52.334;20.890;2024-02-16T01:12:39;7.50;99.90
19359;DHT22;9815;52.334;20.890;2024-02-16T01:15:08;7.50;99.90
19359;DHT22;9815;52.334;20.890;2024-02-16T01:17:38;7.40;99.90
19359;DHT22;9815;52.334;20.890;2024-02-16T01:20:08;7.40;99.90
19359;DHT22;9815;52.334;20.890;2024-02-16T01:22:41;7.40;99.90
19359;DHT22;9815;52.334;20.890;2024-02-16T01:25:09;7.40;99.90
19359;DHT22;9815;52.334;20.890;2024-02-16T01:27:38;7.30;99.90
19359;DHT22;9815;52.334;20.890;2024-02-16T01:30:09;7.30;99.90
19359;DHT22;9815;52.334;20.890;2024-02-16T01:32:38;7.40;99.90
19359;DHT22;9815;52.334;20.890;2024-02-16T01:35:08;7.40;99.90
19359;DHT22;9815;52.334;20.890;2024-02-16T01:37:36;7.30;99.90
19359;DHT22;9815;52.334;20.890;2024-02-16T01:40:08;7.30;99.90
19359;DHT22;9815;52.334;20.890;2024-02-16T01:42:41;7.30;99.90
19359;DHT22;9815;52.334;20.890;2024-02-16T01:45:10;7.20;99.90
19359;DHT22;9815;52.334;20.890;2024-02-16T01:47:41;7.20;99.90
19359;DHT22;9815;52.334;20.890;2024-02-16T01:50:16;7.20;99.90
19359;DHT22;9815;52.334;20.890;2024-02-16T01:52:47;7.20;99.90
19359;DHT22;9815;52.334;20.890;2024-02-16T01:55:17;7.20;99.90
19359;DHT22;9815;52.334;20.890;2024-02-16T01:57:47;7.10;99.90
19359;DHT22;9815;52.334;20.890;2024-02-16T02:00:18;7.10;99.90
19359;DHT22;9815;52.334;20.890;2024-02-16T02:02:47;7.10;99.90
19359;DHT22;9815;52.334;20.890;2024-02-16T02:05:17;7.10;99.90
19359;DHT22;9815;52.334;20.890;2024-02-16T02:07:46;7.10;99.90
19359;DHT22;9815;52.334;20.890;2024-02-16T02:10:16;7.10;99.90
19359;DHT22;9815;52.334;20.890;2024-02-16T02:12:45;7.00;99.90
19359;DHT22;9815;52.334;20.890;2024-02-16T02:15:14;7.00;99.90
19359;DHT22;9815;52.334;20.890;2024-02-16T02:17:43;7.00;99.90
19359;DHT22;9815;52.334;20.890;2024-02-16T02:20:13;6.90;99.90
19359;DHT22;9815;52.334;20.890;2024-02-16T02:22:43;6.90;99.90
19359;DHT22;9815;52.334;20.890;2024-02-16T02:25:12;6.90;99.90
19359;DHT22;9815;52.334;20.890;2024-02-16T02:27:41;6.80;99.90
19359;DHT22;9815;52.334;20.890;2024-02-16T02:30:10;6.80;99.90
19359;DHT22;9815;52.334;20.890;2024-02-16T02:32:38;6.70;99.90
19359;DHT22;9815;52.334;20.890;2024-02-16T02:35:10;6.70;99.90
19359;DHT22;9815;52.334;20.890;2024-02-16T02:37:39;6.70;99.90
19359;DHT22;9815;52.334;20.890;2024-02-16T02:40:10;6.60;99.90
19359;DHT22;9815;52.334;20.890;2024-02-16T02:42:39;6.70;99.90
19359;DHT22;9815;52.334;20.890;2024-02-16T02:45:08;6.70;99.90
19359;DHT22;9815;52.334;20.890;2024-02-16T02:47:37;6.60;99.90
19359;DHT22;9815;52.334;20.890;2024-02-16T02:50:07;6.70;99.90
19359;DHT22;9815;52.334;20.890;2024-02-16T02:52:35;6.60;99.90
19359;DHT22;9815;52.334;20.890;2024-02-16T02:55:05;6.60;99.90
19359;DHT22;9815;52.334;20.890;2024-02-16T02:57:35;6.60;99.90
19359;DHT22;9815;52.334;20.890;2024-02-16T03:00:05;6.50;99.90
19359;DHT22;9815;52.334;20.890;2024-02-16T03:02:38;6.50;99.90
19359;DHT22;9815;52.334;20.890;2024-02-16T03:05:07;6.40;99.90
19359;DHT22;9815;52.334;20.890;2024-02-16T03:07:36;6.40;99.90
19359;DHT22;9815;52.334;20.890;2024-02-16T03:10:06;6.40;99.90
19359;DHT22;9815;52.334;20.890;2024-02-16T03:12:38;6.30;99.90
19359;DHT22;9815;52.334;20.890;2024-02-16T03:15:07;6.30;99.90
19359;DHT22;9815;52.334;20.890;2024-02-16T03:17:36;6.40;99.90
19359;DHT22;9815;52.334;20.890;2024-02-16T03:20:06;6.40;99.90
19359;DHT22;9815;52.334;20.890;2024-02-16T03:22:35;6.40;99.90
19359;DHT22;9815;52.334;20.890;2024-02-16T03:25:04;6.30;99.90
19359;DHT22;9815;52.334;20.890;2024-02-16T03:27:33;6.40;99.90
19359;DHT22;9815;52.334;20.890;2024-02-16T03:30:04;6.30;99.90
19359;DHT22;9815;52.334;20.890;2024-02-16T03:32:33;6.50;99.90
19359;DHT22;9815;52.334;20.890;2024-02-16T03:35:01;6.20;99.90
19359;DHT22;9815;52.334;20.890;2024-02-16T03:37:31;6.30;99.90
19359;DHT22;9815;52.334;20.890;2024-02-16T03:39:59;6.30;99.90
19359;DHT22;9815;52.334;20.890;2024-02-16T03:42:30;6.20;99.90
19359;DHT22;9815;52.334;20.890;2024-02-16T03:44:59;6.20;99.90
19359;DHT22;9815;52.334;20.890;2024-02-16T03:47:29;6.20;99.90
19359;DHT22;9815;52.334;20.890;2024-02-16T03:49:58;6.20;99.90
19359;DHT22;9815;52.334;20.890;2024-02-16T03:52:26;6.10;99.90
19359;DHT22;9815;52.334;20.890;2024-02-16T03:54:55;6.10;99.90
19359;DHT22;9815;52.334;20.890;2024-02-16T03:57:23;6.10;99.90
19359;DHT22;9815;52.334;20.890;2024-02-16T03:59:52;6.00;99.90
19359;DHT22;9815;52.334;20.890;2024-02-16T04:02:21;6.00;99.90
19359;DHT22;9815;52.334;20.890;2024-02-16T04:04:51;6.00;99.90
19359;DHT22;9815;52.334;20.890;2024-02-16T04:07:20;5.90;99.90
19359;DHT22;9815;52.334;20.890;2024-02-16T04:09:48;5.90;99.90
19359;DHT22;9815;52.334;20.890;2024-02-16T04:12:17;5.80;99.90
19359;DHT22;9815;52.334;20.890;2024-02-16T04:14:46;5.70;99.90
19359;DHT22;9815;52.334;20.890;2024-02-16T04:17:14;5.70;99.90
19359;DHT22;9815;52.334;20.890;2024-02-16T04:19:44;5.70;99.90
19359;DHT22;9815;52.334;20.890;2024-02-16T04:22:14;5.80;99.90
19359;DHT22;9815;52.334;20.890;2024-02-16T04:24:43;5.70;99.90
19359;DHT22;9815;52.334;20.890;2024-02-16T04:27:11;5.70;99.90
19359;DHT22;9815;52.334;20.890;2024-02-16T04:29:40;5.60;99.90
19359;DHT22;9815;52.334;20.890;2024-02-16T04:32:10;5.70;99.90
19359;DHT22;9815;52.334;20.890;2024-02-16T04:34:39;5.70;99.90
19359;DHT22;9815;52.334;20.890;2024-02-16T04:37:08;5.70;99.90
19359;DHT22;9815;52.334;20.890;2024-02-16T04:39:38;5.60;99.90
19359;DHT22;9815;52.334;20.890;2024-02-16T04:42:09;5.60;99.90
19359;DHT22;9815;52.334;20.890;2024-02-16T04:44:39;5.60;99.90
19359;DHT22;9815;52.334;20.890;2024-02-16T04:47:07;5.60;99.90
19359;DHT22;9815;52.334;20.890;2024-02-16T04:49:37;5.50;99.90
19359;DHT22;9815;52.334;20.890;2024-02-16T04:52:05;5.50;99.90
19359;DHT22;9815;52.334;20.890;2024-02-16T04:54:37;5.50;99.90
19359;DHT22;9815;52.334;20.890;2024-02-16T04:57:08;5.40;99.90
19359;DHT22;9815;52.334;20.890;2024-02-16T04:59:37;5.40;99.90
19359;DHT22;9815;52.334;20.890;2024-02-16T05:02:05;5.40;99.90
19359;DHT22;9815;52.334;20.890;2024-02-16T05:04:34;5.40;99.90
19359;DHT22;9815;52.334;20.890;2024-02-16T05:09:32;5.40;99.90
19359;DHT22;9815;52.334;20.890;2024-02-16T05:12:03;5.30;99.90
19359;DHT22;9815;52.334;20.890;2024-02-16T05:14:32;5.30;99.90
19359;DHT22;9815;52.334;20.890;2024-02-16T05:17:00;5.20;99.90
19359;DHT22;9815;52.334;20.890;2024-02-16T05:19:32;5.20;99.90
19359;DHT22;9815;52.334;20.890;2024-02-16T05:22:02;5.20;99.90
19359;DHT22;9815;52.334;20.890;2024-02-16T05:24:31;5.30;99.90
19359;DHT22;9815;52.334;20.890;2024-02-16T05:27:02;5.30;99.90
19359;DHT22;9815;52.334;20.890;2024-02-16T05:29:30;5.20;99.90
19359;DHT22;9815;52.334;20.890;2024-02-16T05:31:59;5.20;99.90
19359;DHT22;9815;52.334;20.890;2024-02-16T05:34:28;5.20;99.90
19359;DHT22;9815;52.334;20.890;2024-02-16T05:37:00;5.20;99.90
19359;DHT22;9815;52.334;20.890;2024-02-16T05:39:30;5.10;99.90
19359;DHT22;9815;52.334;20.890;2024-02-16T05:42:04;5.10;99.90
19359;DHT22;9815;52.334;20.890;2024-02-16T05:44:34;5.10;99.90
19359;DHT22;9815;52.334;20.890;2024-02-16T05:47:04;5.10;99.90
19359;DHT22;9815;52.334;20.890;2024-02-16T05:49:35;5.10;99.90
19359;DHT22;9815;52.334;20.890;2024-02-16T05:52:05;5.00;99.90
19359;DHT22;9815;52.334;20.890;2024-02-16T05:54:48;5.00;99.90
19359;DHT22;9815;52.334;20.890;2024-02-16T05:57:18;4.90;99.90
19359;DHT22;9815;52.334;20.890;2024-02-16T05:59:47;4.90;99.90
19359;DHT22;9815;52.334;20.890;2024-02-16T06:02:18;4.90;99.90
19359;DHT22;9815;52.334;20.890;2024-02-16T06:04:47;4.90;99.90
19359;DHT22;9815;52.334;20.890;2024-02-16T06:07:17;4.80;99.90
19359;DHT22;9815;52.334;20.890;2024-02-16T06:09:46;4.70;99.90
19359;DHT22;9815;52.334;20.890;2024-02-16T06:12:15;4.70;99.90
19359;DHT22;9815;52.334;20.890;2024-02-16T06:14:45;4.60;99.90
19359;DHT22;9815;52.334;20.890;2024-02-16T06:17:15;4.70;99.90
19359;DHT22;9815;52.334;20.890;2024-02-16T06:19:44;4.80;99.90
19359;DHT22;9815;52.334;20.890;2024-02-16T06:22:13;4.70;99.90
19359;DHT22;9815;52.334;20.890;2024-02-16T06:24:41;4.80;99.90
19359;DHT22;9815;52.334;20.890;2024-02-16T06:27:11;4.90;99.90
19359;DHT22;9815;52.334;20.890;2024-02-16T06:29:40;5.00;99.90
19359;DHT22;9815;52.334;20.890;2024-02-16T06:32:10;5.00;99.90
19359;DHT22;9815;52.334;20.890;2024-02-16T06:34:39;5.10;99.90
19359;DHT22;9815;52.334;20.890;2024-02-16T06:37:08;5.20;99.90
19359;DHT22;9815;52.334;20.890;2024-02-16T06:39:36;5.20;99.90
19359;DHT22;9815;52.334;20.890;2024-02-16T06:42:05;5.30;99.90
19359;DHT22;9815;52.334;20.890;2024-02-16T06:44:34;5.40;99.90
19359;DHT22;9815;52.334;20.890;2024-02-16T06:47:03;5.50;99.90
19359;DHT22;9815;52.334;20.890;2024-02-16T06:49:33;5.50;99.90
19359;DHT22;9815;52.334;20.890;2024-02-16T06:52:01;5.70;99.90
19359;DHT22;9815;52.334;20.890;2024-02-16T06:54:30;5.80;99.90
19359;DHT22;9815;52.334;20.890;2024-02-16T06:56:59;5.90;99.90
19359;DHT22;9815;52.334;20.890;2024-02-16T06:59:28;6.10;99.90
19359;DHT22;9815;52.334;20.890;2024-02-16T07:01:56;6.10;99.90
19359;DHT22;9815;52.334;20.890;2024-02-16T07:04:27;6.20;99.90
19359;DHT22;9815;52.334;20.890;2024-02-16T07:06:57;6.30;99.90
19359;DHT22;9815;52.334;20.890;2024-02-16T07:09:25;6.30;99.90
19359;DHT22;9815;52.334;20.890;2024-02-16T07:11:55;6.40;99.90
19359;DHT22;9815;52.334;20.890;2024-02-16T07:14:24;6.50;99.90
19359;DHT22;9815;52.334;20.890;2024-02-16T07:16:52;6.60;99.90
19359;DHT22;9815;52.334;20.890;2024-02-16T07:19:22;6.70;99.90
19359;DHT22;9815;52.334;20.890;2024-02-16T07:21:53;6.70;99.90
19359;DHT22;9815;52.334;20.890;2024-02-16T07:24:25;6.90;99.90
19359;DHT22;9815;52.334;20.890;2024-02-16T07:26:54;7.00;99.90
19359;DHT22;9815;52.334;20.890;2024-02-16T07:29:23;7.00;99.90
19359;DHT22;9815;52.334;20.890;2024-02-16T07:31:51;7.10;99.90
19359;DHT22;9815;52.334;20.890;2024-02-16T07:34:19;7.30;99.90
19359;DHT22;9815;52.334;20.890;2024-02-16T07:36:48;7.30;99.90
19359;DHT22;9815;52.334;20.890;2024-02-16T07:39:16;7.40;99.90
19359;DHT22;9815;52.334;20.890;2024-02-16T07:41:46;7.50;99.90
19359;DHT22;9815;52.334;20.890;2024-02-16T07:44:16;7.50;99.90
19359;DHT22;9815;52.334;20.890;2024-02-16T07:46:44;7.60;99.90
19359;DHT22;9815;52.334;20.890;2024-02-16T07:49:13;7.60;99.90
19359;DHT22;9815;52.334;20.890;2024-02-16T07:51:42;7.70;99.90
19359;DHT22;9815;52.334;20.890;2024-02-16T07:54:11;7.80;99.90
19359;DHT22;9815;52.334;20.890;2024-02-16T07:56:40;7.80;99.90
19359;DHT22;9815;52.334;20.890;2024-02-16T07:59:10;7.80;99.90
19359;DHT22;9815;52.334;20.890;2024-02-16T08:01:39;7.90;99.90
19359;DHT22;9815;52.334;20.890;2024-02-16T08:04:12;7.90;99.90
19359;DHT22;9815;52.334;20.890;2024-02-16T08:06:41;8.10;99.90
19359;DHT22;9815;52.334;20.890;2024-02-16T08:09:14;8.00;99.90
19359;DHT22;9815;52.334;20.890;2024-02-16T08:11:43;8.00;99.90
19359;DHT22;9815;52.334;20.890;2024-02-16T08:14:13;8.00;99.90
19359;DHT22;9815;52.334;20.890;2024-02-16T08:16:42;8.10;99.90
19359;DHT22;9815;52.334;20.890;2024-02-16T08:19:10;8.20;99.90
19359;DHT22;9815;52.334;20.890;2024-02-16T08:21:41;8.30;99.90
19359;DHT22;9815;52.334;20.890;2024-02-16T08:24:09;8.30;99.90
19359;DHT22;9815;52.334;20.890;2024-02-16T08:26:53;8.40;99.90
19359;DHT22;9815;52.334;20.890;2024-02-16T08:29:25;8.50;99.90
19359;DHT22;9815;52.334;20.890;2024-02-16T08:31:54;8.60;99.90
19359;DHT22;9815;52.334;20.890;2024-02-16T08:34:23;8.60;99.90
19359;DHT22;9815;52.334;20.890;2024-02-16T08:36:53;8.70;99.90
19359;DHT22;9815;52.334;20.890;2024-02-16T08:39:22;8.80;99.90
19359;DHT22;9815;52.334;20.890;2024-02-16T08:41:53;8.90;99.90
19359;DHT22;9815;52.334;20.890;2024-02-16T08:44:21;9.00;99.90
19359;DHT22;9815;52.334;20.890;2024-02-16T08:46:51;9.10;99.90
19359;DHT22;9815;52.334;20.890;2024-02-16T08:49:21;9.20;99.90
19359;DHT22;9815;52.334;20.890;2024-02-16T08:51:50;9.30;99.90
19359;DHT22;9815;52.334;20.890;2024-02-16T08:54:19;9.30;98.20
19359;DHT22;9815;52.334;20.890;2024-02-16T08:56:47;9.40;98.30
19359;DHT22;9815;52.334;20.890;2024-02-16T08:59:22;9.50;96.60
19359;DHT22;9815;52.334;20.890;2024-02-16T09:02:09;9.60;97.80
19359;DHT22;9815;52.334;20.890;2024-02-16T09:04:37;9.80;96.00
19359;DHT22;9815;52.334;20.890;2024-02-16T09:07:06;9.90;95.90
19359;DHT22;9815;52.334;20.890;2024-02-16T09:09:34;10.10;90.10
19359;DHT22;9815;52.334;20.890;2024-02-16T09:12:03;10.30;82.70
19359;DHT22;9815;52.334;20.890;2024-02-16T09:14:32;10.50;75.90
19359;DHT22;9815;52.334;20.890;2024-02-16T09:17:00;10.60;80.90
19359;DHT22;9815;52.334;20.890;2024-02-16T09:19:30;10.80;67.40
19359;DHT22;9815;52.334;20.890;2024-02-16T09:21:59;10.90;68.30
19359;DHT22;9815;52.334;20.890;2024-02-16T09:24:30;10.90;64.90
19359;DHT22;9815;52.334;20.890;2024-02-16T09:26:58;11.00;64.40
19359;DHT22;9815;52.334;20.890;2024-02-16T09:29:31;11.20;67.60
19359;DHT22;9815;52.334;20.890;2024-02-16T09:32:00;11.20;62.70
19359;DHT22;9815;52.334;20.890;2024-02-16T09:34:30;11.40;55.40
19359;DHT22;9815;52.334;20.890;2024-02-16T09:36:59;11.50;58.30
19359;DHT22;9815;52.334;20.890;2024-02-16T09:39:27;11.60;60.50
19359;DHT22;9815;52.334;20.890;2024-02-16T09:41:57;11.70;54.10
19359;DHT22;9815;52.334;20.890;2024-02-16T09:44:26;11.70;53.80
19359;DHT22;9815;52.334;20.890;2024-02-16T09:46:57;11.70;53.40
19359;DHT22;9815;52.334;20.890;2024-02-16T09:49:28;11.70;53.00
19359;DHT22;9815;52.334;20.890;2024-02-16T09:52:10;11.70;53.30
19359;DHT22;9815;52.334;20.890;2024-02-16T09:54:39;11.70;48.30
19359;DHT22;9815;52.334;20.890;2024-02-16T09:57:09;11.80;55.00
19359;DHT22;9815;52.334;20.890;2024-02-16T09:59:37;11.90;52.50
19359;DHT22;9815;52.334;20.890;2024-02-16T10:02:06;12.00;45.90
19359;DHT22;9815;52.334;20.890;2024-02-16T10:04:35;12.00;52.10
19359;DHT22;9815;52.334;20.890;2024-02-16T10:07:04;12.20;50.80
19359;DHT22;9815;52.334;20.890;2024-02-16T10:09:40;12.40;47.00
19359;DHT22;9815;52.334;20.890;2024-02-16T10:12:10;12.70;38.00
19359;DHT22;9815;52.334;20.890;2024-02-16T10:14:42;13.10;35.50
19359;DHT22;9815;52.334;20.890;2024-02-16T10:17:16;13.20;33.40
19359;DHT22;9815;52.334;20.890;2024-02-16T10:19:55;13.40;32.20
19359;DHT22;9815;52.334;20.890;2024-02-16T10:22:24;13.40;30.90
19359;DHT22;9815;52.334;20.890;2024-02-16T10:24:55;13.50;30.40
19359;DHT22;9815;52.334;20.890;2024-02-16T10:27:24;13.70;28.50
19359;DHT22;9815;52.334;20.890;2024-02-16T10:29:53;13.80;28.40
19359;DHT22;9815;52.334;20.890;2024-02-16T10:32:22;13.90;28.00
19359;DHT22;9815;52.334;20.890;2024-02-16T10:34:51;14.00;26.00
19359;DHT22;9815;52.334;20.890;2024-02-16T10:37:23;14.10;26.80
19359;DHT22;9815;52.334;20.890;2024-02-16T10:39:52;14.30;26.00
19359;DHT22;9815;52.334;20.890;2024-02-16T10:42:26;14.40;24.80
19359;DHT22;9815;52.334;20.890;2024-02-16T10:44:55;14.30;24.60
19359;DHT22;9815;52.334;20.890;2024-02-16T10:47:24;14.50;24.00
19359;DHT22;9815;52.334;20.890;2024-02-16T10:49:52;14.50;24.70
19359;DHT22;9815;52.334;20.890;2024-02-16T10:52:21;14.60;23.60
19359;DHT22;9815;52.334;20.890;2024-02-16T10:54:52;14.60;24.10
19359;DHT22;9815;52.334;20.890;2024-02-16T10:57:23;14.50;23.00
19359;DHT22;9815;52.334;20.890;2024-02-16T10:59:53;14.70;23.80
19359;DHT22;9815;52.334;20.890;2024-02-16T11:02:22;14.70;23.20
19359;DHT22;9815;52.334;20.890;2024-02-16T11:04:52;14.70;23.20
19359;DHT22;9815;52.334;20.890;2024-02-16T11:07:24;14.80;23.10
19359;DHT22;9815;52.334;20.890;2024-02-16T11:09:53;14.80;22.30
19359;DHT22;9815;52.334;20.890;2024-02-16T11:12:22;14.70;23.90
19359;DHT22;9815;52.334;20.890;2024-02-16T11:14:50;14.80;24.00
19359;DHT22;9815;52.334;20.890;2024-02-16T11:17:24;15.10;23.70
19359;DHT22;9815;52.334;20.890;2024-02-16T11:19:54;15.10;22.40
19359;DHT22;9815;52.334;20.890;2024-02-16T11:22:27;15.00;22.50
19359;DHT22;9815;52.334;20.890;2024-02-16T11:24:58;14.90;22.50
19359;DHT22;9815;52.334;20.890;2024-02-16T11:27:31;15.00;22.80
19359;DHT22;9815;52.334;20.890;2024-02-16T11:30:02;15.10;22.70
19359;DHT22;9815;52.334;20.890;2024-02-16T11:32:34;15.50;22.40
19359;DHT22;9815;52.334;20.890;2024-02-16T11:35:09;15.40;21.20
19359;DHT22;9815;52.334;20.890;2024-02-16T11:37:39;15.40;21.80
19359;DHT22;9815;52.334;20.890;2024-02-16T11:40:12;15.40;22.50
19359;DHT22;9815;52.334;20.890;2024-02-16T11:42:41;15.60;21.80
19359;DHT22;9815;52.334;20.890;2024-02-16T11:45:12;15.80;21.30
19359;DHT22;9815;52.334;20.890;2024-02-16T11:47:43;15.80;21.90
19359;DHT22;9815;52.334;20.890;2024-02-16T11:50:12;15.90;22.00
19359;DHT22;9815;52.334;20.890;2024-02-16T11:52:42;15.90;21.50
19359;DHT22;9815;52.334;20.890;2024-02-16T11:55:11;15.90;22.10
19359;DHT22;9815;52.334;20.890;2024-02-16T11:57:41;15.90;20.90
19359;DHT22;9815;52.334;20.890;2024-02-16T12:00:11;15.90;21.10
19359;DHT22;9815;52.334;20.890;2024-02-16T12:02:44;15.80;22.00
19359;DHT22;9815;52.334;20.890;2024-02-16T12:05:14;15.90;22.00
19359;DHT22;9815;52.334;20.890;2024-02-16T12:07:42;16.10;21.60
19359;DHT22;9815;52.334;20.890;2024-02-16T12:10:12;16.10;21.40
19359;DHT22;9815;52.334;20.890;2024-02-16T12:12:40;16.20;21.20
19359;DHT22;9815;52.334;20.890;2024-02-16T12:15:10;16.00;21.10
19359;DHT22;9815;52.334;20.890;2024-02-16T12:17:41;16.00;21.50
19359;DHT22;9815;52.334;20.890;2024-02-16T12:20:14;15.70;21.70
19359;DHT22;9815;52.334;20.890;2024-02-16T12:22:43;15.70;21.90
19359;DHT22;9815;52.334;20.890;2024-02-16T12:25:14;15.90;22.10
19359;DHT22;9815;52.334;20.890;2024-02-16T12:27:42;16.10;21.90
19359;DHT22;9815;52.334;20.890;2024-02-16T12:30:12;16.10;22.10
19359;DHT22;9815;52.334;20.890;2024-02-16T12:32:40;15.90;22.20
19359;DHT22;9815;52.334;20.890;2024-02-16T12:35:09;15.80;22.60
19359;DHT22;9815;52.334;20.890;2024-02-16T12:37:39;15.80;23.00
19359;DHT22;9815;52.334;20.890;2024-02-16T12:40:09;15.80;22.60
19359;DHT22;9815;52.334;20.890;2024-02-16T12:42:37;15.70;22.90
19359;DHT22;9815;52.334;20.890;2024-02-16T12:45:08;15.60;23.70
19359;DHT22;9815;52.334;20.890;2024-02-16T12:47:37;15.50;24.00
19359;DHT22;9815;52.334;20.890;2024-02-16T12:50:06;15.50;23.90
19359;DHT22;9815;52.334;20.890;2024-02-16T12:52:35;15.30;24.60
19359;DHT22;9815;52.334;20.890;2024-02-16T12:55:18;15.30;25.10
19359;DHT22;9815;52.334;20.890;2024-02-16T12:57:46;15.40;25.50
19359;DHT22;9815;52.334;20.890;2024-02-16T13:00:16;15.50;25.60
19359;DHT22;9815;52.334;20.890;2024-02-16T13:02:45;15.50;25.30
19359;DHT22;9815;52.334;20.890;2024-02-16T13:05:15;15.60;25.60
19359;DHT22;9815;52.334;20.890;2024-02-16T13:07:46;15.60;24.90
19359;DHT22;9815;52.334;20.890;2024-02-16T13:10:15;15.70;25.10
19359;DHT22;9815;52.334;20.890;2024-02-16T13:12:45;15.70;25.40
19359;DHT22;9815;52.334;20.890;2024-02-16T13:15:14;15.70;25.00
19359;DHT22;9815;52.334;20.890;2024-02-16T13:17:54;15.60;24.90
19359;DHT22;9815;52.334;20.890;2024-02-16T13:20:23;15.50;24.80
19359;DHT22;9815;52.334;20.890;2024-02-16T13:22:52;15.40;25.40
19359;DHT22;9815;52.334;20.890;2024-02-16T13:25:21;15.20;25.50
19359;DHT22;9815;52.334;20.890;2024-02-16T13:27:51;15.10;26.20
19359;DHT22;9815;52.334;20.890;2024-02-16T13:30:19;15.00;27.80
19359;DHT22;9815;52.334;20.890;2024-02-16T13:32:48;14.90;28.30
19359;DHT22;9815;52.334;20.890;2024-02-16T13:35:16;14.80;28.40
19359;DHT22;9815;52.334;20.890;2024-02-16T13:37:48;14.80;29.60
19359;DHT22;9815;52.334;20.890;2024-02-16T13:40:16;14.60;29.00
19359;DHT22;9815;52.334;20.890;2024-02-16T13:42:45;14.50;30.80
19359;DHT22;9815;52.334;20.890;2024-02-16T13:45:16;14.40;33.40
19359;DHT22;9815;52.334;20.890;2024-02-16T13:47:45;14.20;34.10
19359;DHT22;9815;52.334;20.890;2024-02-16T13:50:13;14.10;36.60
19359;DHT22;9815;52.334;20.890;2024-02-16T13:52:42;14.10;40.00
19359;DHT22;9815;52.334;20.890;2024-02-16T13:55:11;14.00;42.40
19359;DHT22;9815;52.334;20.890;2024-02-16T13:57:39;14.00;42.10
19359;DHT22;9815;52.334;20.890;2024-02-16T14:00:20;13.90;43.50
19359;DHT22;9815;52.334;20.890;2024-02-16T14:02:54;13.70;47.00
19359;DHT22;9815;52.334;20.890;2024-02-16T14:05:46;13.60;50.80
19359;DHT22;9815;52.334;20.890;2024-02-16T14:08:15;13.60;51.90
19359;DHT22;9815;52.334;20.890;2024-02-16T14:10:44;13.50;53.30
19359;DHT22;9815;52.334;20.890;2024-02-16T14:13:12;13.40;53.90
19359;DHT22;9815;52.334;20.890;2024-02-16T14:15:43;13.40;56.80
19359;DHT22;9815;52.334;20.890;2024-02-16T14:18:12;13.30;56.50
19359;DHT22;9815;52.334;20.890;2024-02-16T14:20:53;13.30;59.20
19359;DHT22;9815;52.334;20.890;2024-02-16T14:23:21;13.30;60.80
19359;DHT22;9815;52.334;20.890;2024-02-16T14:25:49;13.40;57.10
19359;DHT22;9815;52.334;20.890;2024-02-16T14:28:18;13.30;57.00
19359;DHT22;9815;52.334;20.890;2024-02-16T14:30:48;13.30;61.50
19359;DHT22;9815;52.334;20.890;2024-02-16T14:33:19;13.20;61.20
19359;DHT22;9815;52.334;20.890;2024-02-16T14:36:00;13.20;63.90
19359;DHT22;9815;52.334;20.890;2024-02-16T14:38:32;13.10;65.50
19359;DHT22;9815;52.334;20.890;2024-02-16T14:41:00;13.00;72.10
19359;DHT22;9815;52.334;20.890;2024-02-16T14:43:31;12.90;73.70
19359;DHT22;9815;52.334;20.890;2024-02-16T14:46:01;12.80;75.40
19359;DHT22;9815;52.334;20.890;2024-02-16T14:48:31;12.80;77.70
19359;DHT22;9815;52.334;20.890;2024-02-16T14:51:01;12.70;81.90
19359;DHT22;9815;52.334;20.890;2024-02-16T14:53:30;12.70;80.80
19359;DHT22;9815;52.334;20.890;2024-02-16T14:56:00;12.50;82.70
19359;DHT22;9815;52.334;20.890;2024-02-16T14:58:30;12.50;82.00
19359;DHT22;9815;52.334;20.890;2024-02-16T15:01:01;12.50;83.50
19359;DHT22;9815;52.334;20.890;2024-02-16T15:03:30;12.50;80.00
19359;DHT22;9815;52.334;20.890;2024-02-16T15:05:58;12.40;83.80
19359;DHT22;9815;52.334;20.890;2024-02-16T15:08:27;12.30;87.50
19359;DHT22;9815;52.334;20.890;2024-02-16T15:10:55;12.20;88.70
19359;DHT22;9815;52.334;20.890;2024-02-16T15:13:24;12.10;89.90
19359;DHT22;9815;52.334;20.890;2024-02-16T15:15:54;12.00;86.20
19359;DHT22;9815;52.334;20.890;2024-02-16T15:18:24;12.10;84.00
19359;DHT22;9815;52.334;20.890;2024-02-16T15:20:53;12.00;86.10
19359;DHT22;9815;52.334;20.890;2024-02-16T15:23:22;11.90;87.20
19359;DHT22;9815;52.334;20.890;2024-02-16T15:25:51;11.90;84.70
19359;DHT22;9815;52.334;20.890;2024-02-16T15:28:19;11.80;85.70
19359;DHT22;9815;52.334;20.890;2024-02-16T15:30:48;11.70;89.00
19359;DHT22;9815;52.334;20.890;2024-02-16T15:33:16;11.70;91.10
19359;DHT22;9815;52.334;20.890;2024-02-16T15:35:47;11.60;92.20
19359;DHT22;9815;52.334;20.890;2024-02-16T15:38:17;11.50;92.80
19359;DHT22;9815;52.334;20.890;2024-02-16T15:40:45;11.40;93.40
19359;DHT22;9815;52.334;20.890;2024-02-16T15:43:17;11.40;95.00
19359;DHT22;9815;52.334;20.890;2024-02-16T15:45:46;11.30;92.50
19359;DHT22;9815;52.334;20.890;2024-02-16T15:48:17;11.30;92.80
19359;DHT22;9815;52.334;20.890;2024-02-16T15:50:47;11.20;94.40
19359;DHT22;9815;52.334;20.890;2024-02-16T15:53:21;11.10;93.50
19359;DHT22;9815;52.334;20.890;2024-02-16T15:55:49;11.10;94.60
19359;DHT22;9815;52.334;20.890;2024-02-16T15:58:18;11.00;94.90